createdAt,value
2022-11-05T00:00:06.001Z,22.97
2022-11-05T00:02:53.097Z,21.63
2022-11-05T00:05:38.987Z,25.80
2022-11-05T00:08:24.532Z,25.90
2022-11-05T00:10:52.559Z,25.67
2022-11-05T00:13:38.259Z,23.67
2022-11-05T00:16:23.763Z,20.10
2022-11-05T00:19:09.873Z,25.20
2022-11-05T00:21:56.398Z,26.23
2022-11-05T00:24:42.495Z,20.23
2022-11-05T00:27:11.009Z,25.87
2022-11-05T00:29:39.017Z,25.20
2022-11-05T00:32:07.063Z,26.73
2022-11-05T00:34:37.275Z,24.63
2022-11-05T00:37:05.279Z,23.07
2022-11-05T00:39:33.293Z,24.43
2022-11-05T00:42:18.706Z,27.03
2022-11-05T00:45:02.090Z,21.90
2022-11-05T00:47:47.777Z,22.70
2022-11-05T00:50:17.663Z,21.97
2022-11-05T00:52:58.026Z,24.60
2022-11-05T00:55:29.340Z,29.40
2022-11-05T00:57:58.595Z,22.50
2022-11-05T01:00:28.403Z,24.60
2022-11-05T01:02:59.219Z,23.93
2022-11-05T01:05:29.366Z,26.23
2022-11-05T01:07:57.472Z,21.10
2022-11-05T01:10:26.279Z,25.07
2022-11-05T01:12:54.319Z,27.50
2022-11-05T01:15:22.770Z,24.43
2022-11-05T01:17:52.612Z,22.30
2022-11-05T01:20:20.656Z,25.00
2022-11-05T01:22:50.029Z,23.07
2022-11-05T01:25:18.202Z,32.43
2022-11-05T01:27:46.652Z,27.27
2022-11-05T01:30:15.084Z,22.27
2022-11-05T01:32:43.288Z,25.87
2022-11-05T01:35:16.120Z,22.87
2022-11-05T01:37:44.533Z,27.17
2022-11-05T01:40:16.214Z,28.43
2022-11-05T01:42:44.664Z,24.37
2022-11-05T01:45:16.947Z,25.20
2022-11-05T01:47:56.244Z,24.47
2022-11-05T01:50:31.309Z,20.80
2022-11-05T01:53:04.526Z,32.30
2022-11-05T01:55:38.971Z,24.70
2022-11-05T01:58:10.536Z,27.93
2022-11-05T02:00:40.276Z,25.17
2022-11-05T02:03:09.072Z,24.83
2022-11-05T02:05:38.000Z,28.27
2022-11-05T02:08:06.530Z,27.23
2022-11-05T02:10:35.953Z,25.17
2022-11-05T02:13:03.976Z,33.83
2022-11-05T02:15:41.477Z,27.10
2022-11-05T02:18:21.396Z,26.73
2022-11-05T02:21:00.817Z,26.43
2022-11-05T02:23:59.452Z,22.27
2022-11-05T02:27:00.892Z,32.43
2022-11-05T02:30:03.135Z,26.80
2022-11-05T02:32:39.946Z,24.07
2022-11-05T02:35:16.767Z,27.47
2022-11-05T02:37:50.605Z,25.40
2022-11-05T02:40:25.888Z,26.83
2022-11-05T02:43:00.543Z,26.00
2022-11-05T02:45:39.885Z,33.03
2022-11-05T02:48:15.355Z,28.10
2022-11-05T02:50:52.508Z,30.40
2022-11-05T02:53:25.321Z,22.80
2022-11-05T02:55:59.369Z,28.90
2022-11-05T02:58:30.644Z,27.90
2022-11-05T03:01:00.402Z,29.17
2022-11-05T03:03:33.994Z,26.60
2022-11-05T03:06:47.317Z,26.10
2022-11-05T03:09:36.263Z,27.63
2022-11-05T03:12:16.559Z,31.53
2022-11-05T03:14:53.908Z,30.00
2022-11-05T03:17:32.356Z,30.60
2022-11-05T03:20:11.372Z,28.47
2022-11-05T03:22:44.736Z,30.13
2022-11-05T03:25:16.957Z,30.50
2022-11-05T03:27:48.162Z,27.77
2022-11-05T03:30:19.279Z,25.10
2022-11-05T03:32:51.097Z,34.60
2022-11-05T03:35:25.189Z,33.27
2022-11-05T03:37:57.300Z,28.80
2022-11-05T03:40:26.181Z,30.17
2022-11-05T03:42:58.344Z,32.67
2022-11-05T03:45:31.849Z,31.37
2022-11-05T03:48:02.519Z,31.43
2022-11-05T03:50:40.973Z,29.93
2022-11-05T03:53:15.456Z,32.87
2022-11-05T03:55:52.165Z,31.93
2022-11-05T03:58:22.092Z,30.70
2022-11-05T04:00:51.905Z,36.37
2022-11-05T04:03:20.541Z,34.00
2022-11-05T04:06:10.371Z,33.83
2022-11-05T04:08:55.951Z,33.57
2022-11-05T04:11:50.014Z,33.77
2022-11-05T04:14:18.055Z,34.57
2022-11-05T04:17:03.743Z,29.50
2022-11-05T04:19:49.339Z,38.10
2022-11-05T04:22:36.085Z,32.80
2022-11-05T04:25:04.230Z,29.10
2022-11-05T04:27:32.269Z,37.87
2022-11-05T04:30:17.577Z,30.43
2022-11-05T04:32:58.149Z,33.13
2022-11-05T04:35:27.323Z,37.03
2022-11-05T04:37:56.700Z,35.27
2022-11-05T04:40:24.778Z,32.47
2022-11-05T04:42:54.463Z,34.13
2022-11-05T04:45:23.365Z,34.83
2022-11-05T04:47:51.480Z,34.23
2022-11-05T04:50:19.522Z,36.33
2022-11-05T04:52:47.530Z,34.30
2022-11-05T04:55:17.150Z,35.70
2022-11-05T04:57:47.969Z,36.20
2022-11-05T05:00:16.085Z,33.70
2022-11-05T05:02:44.142Z,39.07
2022-11-05T05:05:12.364Z,42.23
2022-11-05T05:07:40.500Z,38.03
2022-11-05T05:10:10.209Z,39.73
2022-11-05T05:12:39.612Z,39.73
2022-11-05T05:15:08.537Z,43.07
2022-11-05T05:17:36.533Z,39.10
2022-11-05T05:20:22.352Z,43.60
2022-11-05T05:22:54.105Z,48.03
2022-11-05T05:25:22.350Z,41.50
2022-11-05T05:27:51.842Z,46.03
2022-11-05T05:30:20.127Z,43.67
2022-11-05T05:32:48.308Z,42.93
2022-11-05T05:35:16.580Z,45.33
2022-11-05T05:37:44.824Z,42.37
2022-11-05T05:40:13.061Z,41.77
2022-11-05T05:42:43.312Z,44.50
2022-11-05T05:45:13.424Z,47.80
2022-11-05T05:47:41.483Z,47.43
2022-11-05T05:50:09.735Z,49.77
2022-11-05T05:52:38.226Z,49.10
2022-11-05T05:55:07.041Z,47.60
2022-11-05T05:57:35.743Z,48.50
2022-11-05T06:00:04.880Z,46.93
2022-11-05T06:02:34.424Z,54.93
2022-11-05T06:05:02.759Z,49.07
2022-11-05T06:07:35.953Z,54.57
2022-11-05T06:10:05.958Z,53.07
2022-11-05T06:12:34.152Z,51.87
2022-11-05T06:15:02.170Z,53.17
2022-11-05T06:17:30.240Z,51.67
2022-11-05T06:19:59.594Z,50.53
2022-11-05T06:22:27.583Z,49.53
2022-11-05T06:24:55.573Z,52.80
2022-11-05T06:27:23.537Z,53.90
2022-11-05T06:29:51.528Z,48.77
2022-11-05T06:32:19.512Z,49.43
2022-11-05T06:34:47.508Z,49.60
2022-11-05T06:37:16.842Z,51.17
2022-11-05T06:39:44.863Z,50.73
2022-11-05T06:42:18.456Z,53.93
2022-11-05T06:44:46.985Z,51.33
2022-11-05T06:47:15.050Z,47.07
2022-11-05T06:49:43.061Z,54.73
2022-11-05T06:52:11.044Z,55.00
2022-11-05T06:54:40.836Z,54.13
2022-11-05T06:57:09.893Z,55.90
2022-11-05T06:59:38.062Z,54.87
2022-11-05T07:02:06.475Z,57.17
2022-11-05T07:04:34.854Z,52.63
2022-11-05T07:07:02.918Z,59.07
2022-11-05T07:09:31.069Z,54.10
2022-11-05T07:12:00.447Z,53.90
2022-11-05T07:14:28.414Z,58.13
2022-11-05T07:16:58.342Z,58.63
2022-11-05T07:19:26.378Z,59.10
2022-11-05T07:21:54.376Z,54.07
2022-11-05T07:24:22.380Z,60.67
2022-11-05T07:26:50.651Z,59.30
2022-11-05T07:29:20.055Z,74.23
2022-11-05T07:31:48.173Z,58.10
2022-11-05T07:34:17.244Z,56.47
2022-11-05T07:36:45.249Z,59.67
2022-11-05T07:39:13.525Z,58.13
2022-11-05T07:41:41.691Z,57.43
2022-11-05T07:44:09.847Z,57.67
2022-11-05T07:46:39.288Z,49.97
2022-11-05T07:49:07.320Z,59.17
2022-11-05T07:51:35.325Z,53.23
2022-11-05T07:54:03.476Z,51.00
2022-11-05T07:56:31.504Z,57.27
2022-11-05T07:58:59.573Z,57.57
2022-11-05T08:01:27.868Z,49.77
2022-11-05T08:03:57.420Z,48.70
2022-11-05T08:06:25.501Z,55.87
2022-11-05T08:08:53.540Z,46.63
2022-11-05T08:11:21.569Z,50.90
2022-11-05T08:13:49.567Z,57.23
2022-11-05T08:16:17.632Z,45.53
2022-11-05T08:18:45.880Z,56.00
2022-11-05T08:21:15.276Z,49.77
2022-11-05T08:23:43.811Z,48.97
2022-11-05T08:26:12.050Z,53.50
2022-11-05T08:28:40.088Z,51.83
2022-11-05T08:31:08.111Z,54.70
2022-11-05T08:33:36.150Z,52.90
2022-11-05T08:36:04.586Z,54.03
2022-11-05T08:38:33.992Z,55.50
2022-11-05T08:41:02.260Z,49.63
2022-11-05T08:43:30.252Z,56.40
2022-11-05T08:46:00.586Z,55.87
2022-11-05T08:48:28.973Z,60.23
2022-11-05T08:50:56.989Z,70.43
2022-11-05T08:53:24.977Z,64.30
2022-11-05T08:55:58.425Z,65.87
2022-11-05T08:58:26.444Z,52.83
2022-11-05T09:00:56.059Z,54.33
2022-11-05T09:03:25.905Z,50.60
2022-11-05T09:05:53.936Z,52.20
2022-11-05T09:08:21.938Z,49.17
2022-11-05T09:10:50.430Z,46.90
2022-11-05T09:13:20.588Z,47.53
2022-11-05T09:15:49.313Z,45.07
2022-11-05T09:18:18.137Z,53.10
2022-11-05T09:20:46.934Z,46.90
2022-11-05T09:23:15.911Z,50.73
2022-11-05T09:25:44.296Z,48.33
2022-11-05T09:28:16.864Z,46.47
2022-11-05T09:30:48.332Z,48.47
2022-11-05T09:33:17.133Z,49.77
2022-11-05T09:35:45.706Z,52.40
2022-11-05T09:38:13.768Z,54.17
2022-11-05T09:40:48.592Z,56.27
2022-11-05T09:43:21.482Z,53.90
2022-11-05T09:45:54.834Z,47.23
2022-11-05T09:48:28.918Z,55.40
2022-11-05T09:50:58.286Z,58.43
2022-11-05T09:53:27.112Z,51.83
2022-11-05T09:55:58.004Z,48.23
2022-11-05T09:58:35.808Z,45.63
2022-11-05T10:01:07.853Z,53.27
2022-11-05T10:03:41.068Z,50.90
2022-11-05T10:06:10.856Z,49.90
2022-11-05T10:08:43.651Z,52.20
2022-11-05T10:11:16.828Z,52.07
2022-11-05T10:13:48.843Z,47.40
2022-11-05T10:16:26.384Z,50.40
2022-11-05T10:18:58.453Z,49.93
2022-11-05T10:21:51.272Z,55.77
2022-11-05T10:24:16.819Z,53.40
2022-11-05T10:26:47.687Z,53.13
2022-11-05T10:29:24.021Z,58.70
2022-11-05T10:31:54.977Z,55.97
2022-11-05T10:34:24.761Z,53.27
2022-11-05T10:36:54.321Z,52.00
2022-11-05T10:39:23.466Z,48.17
2022-11-05T10:42:08.117Z,51.23
2022-11-05T10:44:42.349Z,54.87
2022-11-05T10:47:38.552Z,55.57
2022-11-05T10:50:11.435Z,51.67
2022-11-05T10:52:42.214Z,55.60
2022-11-05T10:55:18.152Z,55.43
2022-11-05T10:57:49.496Z,49.83
2022-11-05T11:00:35.357Z,55.37
2022-11-05T11:03:06.705Z,53.63
2022-11-05T11:05:37.529Z,55.60
2022-11-05T11:08:21.248Z,53.23
2022-11-05T11:10:52.267Z,56.10
2022-11-05T11:13:22.132Z,53.10
2022-11-05T11:15:51.121Z,56.40
2022-11-05T11:18:27.386Z,53.37
2022-11-05T11:21:05.488Z,57.83
2022-11-05T11:23:39.106Z,57.17
2022-11-05T11:26:08.043Z,58.00
2022-11-05T11:28:39.252Z,65.03
2022-11-05T11:31:12.433Z,61.83
2022-11-05T11:33:44.166Z,57.93
2022-11-05T11:36:13.548Z,60.37
2022-11-05T11:38:42.378Z,62.90
2022-11-05T11:41:25.863Z,62.43
2022-11-05T11:43:57.580Z,64.37
2022-11-05T11:46:25.724Z,60.43
2022-11-05T11:48:55.363Z,61.50
2022-11-05T11:51:34.223Z,60.47
2022-11-05T11:54:03.339Z,61.97
2022-11-05T11:56:32.596Z,74.13
2022-11-05T11:59:11.251Z,72.73
2022-11-05T12:02:05.407Z,68.30
2022-11-05T12:04:55.055Z,66.13
2022-11-05T12:07:33.534Z,66.77
2022-11-05T12:10:44.510Z,61.77
2022-11-05T12:13:48.866Z,67.77
2022-11-05T12:16:27.521Z,66.33
2022-11-05T12:19:03.217Z,68.50
2022-11-05T12:21:58.668Z,68.33
2022-11-05T12:25:06.461Z,58.67
2022-11-05T12:27:56.107Z,67.63
2022-11-05T12:30:24.727Z,67.23
2022-11-05T12:33:15.645Z,70.17
2022-11-05T12:36:00.310Z,69.80
2022-11-05T12:38:50.011Z,70.37
2022-11-05T12:41:25.973Z,68.30
2022-11-05T12:44:17.666Z,66.73
2022-11-05T12:46:55.529Z,64.07
2022-11-05T12:49:39.348Z,81.47
2022-11-05T12:52:32.068Z,65.33
2022-11-05T12:55:06.495Z,79.70
2022-11-05T12:57:40.265Z,79.50
2022-11-05T13:00:16.270Z,73.30
2022-11-05T13:02:50.793Z,77.67
2022-11-05T13:05:23.815Z,78.53
2022-11-05T13:07:56.547Z,84.53
2022-11-05T13:10:33.184Z,75.47
2022-11-05T13:13:06.818Z,65.90
2022-11-05T13:15:40.218Z,70.00
2022-11-05T13:18:15.003Z,66.00
2022-11-05T13:20:47.584Z,67.10
2022-11-05T13:23:24.201Z,68.27
2022-11-05T13:25:56.879Z,72.40
2022-11-05T13:28:34.921Z,76.83
2022-11-05T13:31:06.895Z,71.40
2022-11-05T13:33:37.597Z,69.90
2022-11-05T13:36:27.390Z,68.17
2022-11-05T13:39:00.504Z,63.30
2022-11-05T13:41:39.911Z,68.17
2022-11-05T13:44:24.973Z,71.45
2022-11-05T13:47:12.035Z,75.23
2022-11-05T13:49:57.762Z,72.95
2022-11-05T13:52:50.583Z,71.80
2022-11-05T13:55:46.488Z,71.27
2022-11-05T13:58:37.200Z,73.63
2022-11-05T14:01:15.829Z,73.33
2022-11-05T14:03:48.466Z,61.53
2022-11-05T14:06:25.019Z,76.28
2022-11-05T14:08:57.455Z,74.40
2022-11-05T14:11:30.230Z,74.20
2022-11-05T14:14:02.929Z,75.37
2022-11-05T14:16:48.273Z,67.43
2022-11-05T14:19:31.877Z,79.43
2022-11-05T14:22:00.613Z,71.90
2022-11-05T14:24:44.196Z,80.17
2022-11-05T14:27:43.592Z,88.77
2022-11-05T14:30:42.248Z,80.57
2022-11-05T14:33:33.107Z,75.05
2022-11-05T14:36:38.282Z,76.03
2022-11-05T14:39:31.022Z,75.60
2022-11-05T14:42:04.482Z,80.37
2022-11-05T14:44:35.024Z,87.80
2022-11-05T14:47:06.845Z,77.70
2022-11-05T14:49:38.400Z,81.80
2022-11-05T14:52:09.874Z,77.60
2022-11-05T14:54:43.657Z,76.60
2022-11-05T14:57:15.229Z,82.77
2022-11-05T14:59:56.955Z,77.97
2022-11-05T15:02:28.730Z,80.23
2022-11-05T15:05:30.058Z,82.23
2022-11-05T15:07:59.738Z,78.33
2022-11-05T15:10:30.988Z,79.77
2022-11-05T15:13:06.947Z,81.93
2022-11-05T15:15:44.364Z,76.03
2022-11-05T15:18:18.380Z,72.85
2022-11-05T15:20:49.209Z,85.13
2022-11-05T15:23:20.424Z,82.17
2022-11-05T15:26:03.964Z,83.67
2022-11-05T15:28:36.898Z,79.20
2022-11-05T15:31:07.696Z,87.17
2022-11-05T15:33:37.203Z,86.73
2022-11-05T15:36:16.637Z,84.90
2022-11-05T15:38:56.865Z,94.83
2022-11-05T15:41:34.604Z,83.40
2022-11-05T15:44:03.931Z,85.53
2022-11-05T15:46:34.995Z,89.77
2022-11-05T15:49:08.601Z,97.10
2022-11-05T15:51:36.700Z,84.63
2022-11-05T15:54:29.152Z,85.13
2022-11-05T15:56:57.413Z,85.67
2022-11-05T15:59:27.238Z,89.60
2022-11-05T16:02:00.059Z,90.93
2022-11-05T16:04:31.913Z,117.83
2022-11-05T16:07:08.713Z,113.37
2022-11-05T16:09:40.421Z,108.63
2022-11-05T16:12:24.107Z,96.80
2022-11-05T16:14:59.313Z,89.00
2022-11-05T16:17:29.307Z,143.87
2022-11-05T16:19:59.269Z,154.50
2022-11-05T16:22:44.656Z,115.53
2022-11-05T16:25:30.576Z,152.00
2022-11-05T16:27:59.675Z,130.93
2022-11-05T16:30:27.856Z,129.47
2022-11-05T16:33:03.437Z,125.47
2022-11-05T16:35:33.312Z,133.03
2022-11-05T16:38:02.915Z,152.80
2022-11-05T16:40:30.950Z,157.93
2022-11-05T16:43:16.473Z,136.43
2022-11-05T16:45:44.467Z,122.60
2022-11-05T16:48:13.826Z,119.00
2022-11-05T16:50:43.996Z,132.07
2022-11-05T16:53:12.178Z,128.13
2022-11-05T16:55:42.399Z,119.43
2022-11-05T16:58:19.564Z,117.97
2022-11-05T17:00:48.388Z,114.83
2022-11-05T17:03:16.372Z,87.87
2022-11-05T17:05:45.750Z,103.90
2022-11-05T17:08:14.175Z,93.30
2022-11-05T17:10:42.415Z,102.23
2022-11-05T17:13:13.885Z,77.00
2022-11-05T17:15:44.214Z,72.33
2022-11-05T17:18:18.264Z,71.90
2022-11-05T17:20:49.700Z,68.50
2022-11-05T17:23:19.198Z,68.77
2022-11-05T17:25:49.314Z,63.23
2022-11-05T17:28:18.333Z,65.47
2022-11-05T17:30:52.171Z,69.93
2022-11-05T17:33:20.869Z,63.63
2022-11-05T17:35:50.369Z,76.63
2022-11-05T17:38:18.710Z,66.23
2022-11-05T17:40:46.717Z,75.40
2022-11-05T17:43:15.727Z,60.40
2022-11-05T17:45:45.370Z,57.27
2022-11-05T17:48:13.971Z,58.47
2022-11-05T17:50:42.489Z,60.03
2022-11-05T17:53:13.389Z,61.80
2022-11-05T17:55:42.678Z,49.13
2022-11-05T17:58:11.635Z,67.13
2022-11-05T18:00:40.928Z,42.87
2022-11-05T18:03:09.305Z,64.17
2022-11-05T18:05:40.284Z,40.40
2022-11-05T18:08:09.312Z,41.13
2022-11-05T18:10:40.142Z,37.87
2022-11-05T18:13:08.595Z,21.43
2022-11-05T18:15:41.192Z,28.00
2022-11-05T18:18:10.141Z,23.80
2022-11-05T18:20:38.224Z,25.20
2022-11-05T18:23:06.450Z,32.07
2022-11-05T18:25:34.418Z,26.37
2022-11-05T18:28:04.419Z,22.80
2022-11-05T18:30:32.657Z,17.97
2022-11-05T18:33:00.741Z,20.37
2022-11-05T18:35:28.757Z,21.67
2022-11-05T18:37:56.827Z,21.40
2022-11-05T18:40:24.796Z,26.67
2022-11-05T18:42:53.078Z,26.00
2022-11-05T18:45:28.453Z,25.17
2022-11-05T18:47:57.667Z,21.60
2022-11-05T18:50:25.720Z,23.63
2022-11-05T18:52:53.885Z,27.23
2022-11-05T18:55:22.530Z,31.43
2022-11-05T18:57:51.661Z,26.67
2022-11-05T19:00:20.279Z,25.97
2022-11-05T19:02:49.792Z,30.60
2022-11-05T19:05:33.714Z,31.73
2022-11-05T19:08:03.316Z,30.00
2022-11-05T19:10:31.402Z,29.93
2022-11-05T19:12:59.464Z,34.90
2022-11-05T19:15:27.536Z,27.47
2022-11-05T19:17:57.089Z,37.23
2022-11-05T19:20:25.489Z,32.17
2022-11-05T19:22:54.500Z,31.57
2022-11-05T19:25:22.507Z,31.20
2022-11-05T19:27:50.532Z,35.03
2022-11-05T19:30:19.137Z,31.87
2022-11-05T19:32:47.122Z,32.67
2022-11-05T19:35:16.761Z,35.90
2022-11-05T19:37:45.322Z,28.63
2022-11-05T19:40:13.570Z,31.17
2022-11-05T19:42:41.606Z,34.43
2022-11-05T19:45:38.404Z,32.97
2022-11-05T19:47:59.040Z,35.07
2022-11-05T19:50:28.839Z,33.67
2022-11-05T19:52:56.881Z,34.30
2022-11-05T19:55:25.463Z,36.60
2022-11-05T19:57:53.605Z,41.70
2022-11-05T20:00:22.166Z,40.50
2022-11-05T20:02:50.373Z,48.27
2022-11-05T20:05:19.257Z,41.53
2022-11-05T20:07:52.941Z,45.33
2022-11-05T20:10:21.698Z,35.37
2022-11-05T20:12:50.014Z,38.57
2022-11-05T20:15:20.831Z,41.50
2022-11-05T20:17:53.194Z,45.17
2022-11-05T20:20:21.549Z,41.40
2022-11-05T20:22:52.935Z,50.40
2022-11-05T20:25:21.656Z,48.17
2022-11-05T20:27:50.348Z,40.87
2022-11-05T20:30:19.138Z,43.23
2022-11-05T20:32:49.106Z,43.97
2022-11-05T20:35:18.217Z,43.33
2022-11-05T20:37:52.711Z,43.80
2022-11-05T20:40:24.049Z,57.37
2022-11-05T20:42:52.220Z,55.10
2022-11-05T20:45:20.273Z,51.03
2022-11-05T20:47:48.350Z,47.23
2022-11-05T20:50:17.895Z,52.90
2022-11-05T20:52:47.677Z,44.60
2022-11-05T20:55:15.799Z,51.17
2022-11-05T20:57:45.258Z,54.60
2022-11-05T21:00:14.717Z,42.13
2022-11-05T21:02:44.507Z,49.60
2022-11-05T21:05:12.840Z,42.77
2022-11-05T21:07:41.799Z,47.20
2022-11-05T21:10:10.224Z,43.77
2022-11-05T21:12:38.433Z,58.00
2022-11-05T21:15:09.960Z,39.93
2022-11-05T21:17:38.434Z,39.53
2022-11-05T21:20:07.240Z,46.97
2022-11-05T21:22:35.864Z,47.27
2022-11-05T21:25:08.081Z,39.40
2022-11-05T21:27:38.933Z,41.20
2022-11-05T21:30:13.229Z,37.57
2022-11-05T21:32:41.241Z,41.77
2022-11-05T21:35:09.820Z,48.57
2022-11-05T21:37:37.915Z,31.77
2022-11-05T21:40:07.075Z,39.33
2022-11-05T21:42:35.242Z,36.73
2022-11-05T21:45:03.259Z,34.43
2022-11-05T21:47:32.791Z,36.17
2022-11-05T21:50:01.152Z,38.93
2022-11-05T21:52:46.814Z,35.57
2022-11-05T21:55:37.983Z,55.27
2022-11-05T21:58:30.896Z,48.23
2022-11-05T22:00:59.509Z,45.33
2022-11-05T22:03:29.882Z,51.10
2022-11-05T22:05:58.367Z,89.03
2022-11-05T22:08:27.267Z,79.87
2022-11-05T22:10:55.419Z,42.07
2022-11-05T22:13:23.453Z,40.60
2022-11-05T22:15:57.995Z,40.10
2022-11-05T22:18:26.378Z,45.17
2022-11-05T22:20:55.764Z,45.57
2022-11-05T22:23:23.778Z,39.40
2022-11-05T22:25:51.753Z,29.17
2022-11-05T22:28:19.738Z,37.57
2022-11-05T22:30:47.731Z,41.40
2022-11-05T22:33:15.730Z,34.20
2022-11-05T22:35:43.764Z,55.07
2022-11-05T22:38:13.529Z,45.03
2022-11-05T22:40:41.748Z,30.90
2022-11-05T22:43:09.738Z,41.13
2022-11-05T22:45:38.164Z,38.47
2022-11-05T22:48:06.986Z,40.30
2022-11-05T22:50:35.257Z,36.97
2022-11-05T22:53:03.321Z,33.13
2022-11-05T22:55:32.804Z,37.67
2022-11-05T22:58:00.873Z,40.67
2022-11-05T23:00:36.202Z,33.10
2022-11-05T23:03:04.485Z,33.73
2022-11-05T23:05:32.614Z,37.73
2022-11-05T23:08:18.013Z,33.27
2022-11-05T23:11:04.998Z,30.23
2022-11-05T23:13:33.078Z,33.67
2022-11-05T23:16:18.378Z,29.20
2022-11-05T23:19:04.048Z,36.63
2022-11-05T23:21:49.571Z,30.03
2022-11-05T23:24:17.665Z,28.03
2022-11-05T23:26:52.735Z,33.03
2022-11-05T23:29:22.383Z,30.10
2022-11-05T23:32:04.808Z,24.80
2022-11-05T23:34:32.843Z,33.50
2022-11-05T23:37:18.428Z,29.73
2022-11-05T23:39:46.430Z,23.60
2022-11-05T23:42:33.622Z,27.83
2022-11-05T23:45:18.909Z,27.07
2022-11-05T23:48:04.469Z,29.77
2022-11-05T23:50:39.325Z,31.37
2022-11-05T23:53:08.549Z,28.73
2022-11-05T23:55:36.964Z,29.93
2022-11-05T23:58:06.722Z,36.27
